createdAt,value
2023-04-25T00:01:39.074Z,4.15
2023-04-25T00:04:06.397Z,5.05
2023-04-25T00:06:36.420Z,4.97
2023-04-25T00:09:10.356Z,4.88
2023-04-25T00:11:37.970Z,5.80
2023-04-25T00:14:05.182Z,5.55
2023-04-25T00:16:35.702Z,8.18
2023-04-25T00:19:03.226Z,6.13
2023-04-25T00:21:31.818Z,5.53
2023-04-25T00:24:01.221Z,5.47
2023-04-25T00:29:11.619Z,4.30
2023-04-25T00:31:48.750Z,3.45
2023-04-25T00:39:46.701Z,4.10
2023-04-25T00:42:13.996Z,3.75
2023-04-25T00:44:41.617Z,5.40
2023-04-25T00:47:09.035Z,3.97
2023-04-25T00:49:35.759Z,3.63
2023-04-25T00:52:04.499Z,4.93
2023-04-25T00:54:43.599Z,3.90
2023-04-25T00:57:14.470Z,3.50
2023-04-25T00:59:49.012Z,3.40
2023-04-25T01:02:16.070Z,4.28
2023-04-25T01:04:43.680Z,4.43
2023-04-25T01:07:11.173Z,3.95
2023-04-25T01:09:41.368Z,3.15
2023-04-25T01:12:34.741Z,3.28
2023-04-25T01:15:04.607Z,5.45
2023-04-25T01:17:34.418Z,4.18
2023-04-25T01:20:09.795Z,4.45
2023-04-25T01:22:37.298Z,2.65
2023-04-25T01:25:04.791Z,3.13
2023-04-25T01:27:35.339Z,3.25
2023-04-25T01:30:03.585Z,3.55
2023-04-25T01:32:38.420Z,4.53
2023-04-25T01:35:12.604Z,4.45
2023-04-25T01:37:40.707Z,7.53
2023-04-25T01:40:10.268Z,3.33
2023-04-25T01:42:40.222Z,4.22
2023-04-25T01:45:08.784Z,2.97
2023-04-25T01:47:35.513Z,6.57
2023-04-25T01:50:03.580Z,3.85
2023-04-25T01:52:31.609Z,5.78
2023-04-25T01:55:05.661Z,4.80
2023-04-25T01:57:34.704Z,3.22
2023-04-25T02:00:04.552Z,4.32
2023-04-25T02:02:40.911Z,5.05
2023-04-25T02:10:55.462Z,3.80
2023-04-25T02:13:27.171Z,3.65
2023-04-25T02:16:07.085Z,3.28
2023-04-25T02:18:33.841Z,4.97
2023-04-25T02:21:01.409Z,5.68
2023-04-25T02:23:29.013Z,4.78
2023-04-25T02:25:58.423Z,4.65
2023-04-25T02:28:33.215Z,4.70
2023-04-25T02:30:59.841Z,3.38
2023-04-25T02:33:26.479Z,3.85
2023-04-25T02:35:54.334Z,4.30
2023-04-25T02:38:22.355Z,3.95
2023-04-25T02:40:48.961Z,3.30
2023-04-25T02:43:16.384Z,5.25
2023-04-25T02:45:59.676Z,5.25
2023-04-25T02:48:30.318Z,5.75
2023-04-25T02:54:16.441Z,5.82
2023-04-25T02:56:47.393Z,4.00
2023-04-25T03:02:43.374Z,6.07
2023-04-25T03:05:10.137Z,15.80
2023-04-25T03:07:40.140Z,18.45
2023-04-25T03:10:39.291Z,11.07
2023-04-25T03:13:18.958Z,15.90
2023-04-25T03:15:49.034Z,7.28
2023-04-25T03:18:15.722Z,3.95
2023-04-25T03:20:54.974Z,4.70
2023-04-25T03:26:16.967Z,5.38
2023-04-25T03:31:55.336Z,6.00
2023-04-25T03:34:22.325Z,5.10
2023-04-25T03:37:16.426Z,7.40
2023-04-25T03:42:53.806Z,5.95
2023-04-25T03:45:20.578Z,4.35
2023-04-25T03:47:47.537Z,3.55
2023-04-25T03:50:31.503Z,5.57
2023-04-25T03:53:03.001Z,4.15
2023-04-25T03:56:04.417Z,8.13
2023-04-25T03:58:34.788Z,9.23
2023-04-25T04:04:28.945Z,4.10
2023-04-25T04:12:43.055Z,7.78
2023-04-25T04:15:10.211Z,5.60
2023-04-25T04:23:39.760Z,5.28
2023-04-25T04:26:18.752Z,5.00
2023-04-25T04:29:21.358Z,6.03
2023-04-25T04:31:58.869Z,6.53
2023-04-25T04:34:27.310Z,5.95
2023-04-25T04:40:20.885Z,5.97
2023-04-25T04:43:00.051Z,4.22
2023-04-25T04:45:46.656Z,3.70
2023-04-25T04:48:36.340Z,5.47
2023-04-25T04:51:59.073Z,6.63
2023-04-25T04:54:52.664Z,5.30
2023-04-25T05:00:46.720Z,5.25
2023-04-25T05:03:33.366Z,6.35
2023-04-25T05:06:19.847Z,7.30
2023-04-25T05:09:13.596Z,9.43
2023-04-25T05:14:32.119Z,5.60
2023-04-25T05:17:16.806Z,4.82
2023-04-25T05:20:02.095Z,5.05
2023-04-25T05:22:54.597Z,6.30
2023-04-25T05:26:06.412Z,5.82
2023-04-25T05:28:43.547Z,5.95
2023-04-25T05:38:04.325Z,4.75
2023-04-25T05:40:54.430Z,7.72
2023-04-25T05:46:30.024Z,6.40
2023-04-25T05:49:29.044Z,5.05
2023-04-25T05:52:01.769Z,4.95
2023-04-25T06:00:28.282Z,3.60
2023-04-25T06:02:56.312Z,5.57
2023-04-25T06:05:26.277Z,4.38
2023-04-25T06:07:53.106Z,4.53
2023-04-25T06:10:22.982Z,4.05
2023-04-25T06:12:49.762Z,4.78
2023-04-25T06:17:49.570Z,5.03
2023-04-25T06:20:16.518Z,6.00
2023-04-25T06:22:45.544Z,6.55
2023-04-25T06:25:21.553Z,3.45
2023-04-25T06:27:48.340Z,7.28
2023-04-25T06:30:22.477Z,7.38
2023-04-25T06:32:50.634Z,3.40
2023-04-25T06:35:17.473Z,4.20
2023-04-25T06:37:44.879Z,7.22
2023-04-25T06:40:15.297Z,5.32
2023-04-25T06:42:48.119Z,4.05
2023-04-25T06:45:49.854Z,7.50
2023-04-25T06:48:17.168Z,5.88
2023-04-25T06:50:47.184Z,6.43
2023-04-25T06:53:21.474Z,6.75
2023-04-25T06:55:59.713Z,5.88
2023-04-25T06:58:37.903Z,12.35
2023-04-25T07:01:23.568Z,6.70
2023-04-25T07:03:52.772Z,4.60
2023-04-25T07:06:20.354Z,7.55
2023-04-25T07:08:47.208Z,5.85
2023-04-25T07:11:15.208Z,6.07
2023-04-25T07:13:43.424Z,6.45
2023-04-25T07:16:12.603Z,7.63
2023-04-25T07:18:42.333Z,6.90
2023-04-25T07:21:13.066Z,8.57
2023-04-25T07:23:42.092Z,5.85
2023-04-25T07:26:17.427Z,6.78
2023-04-25T07:29:31.216Z,8.13
2023-04-25T07:32:04.340Z,10.10
2023-04-25T07:34:32.822Z,11.25
2023-04-25T07:37:06.426Z,6.63
2023-04-25T07:39:42.262Z,10.38
2023-04-25T07:42:10.082Z,8.27
2023-04-25T07:44:45.233Z,7.28
2023-04-25T07:47:19.835Z,7.28
2023-04-25T07:49:50.447Z,9.10
2023-04-25T07:52:17.276Z,7.85
2023-04-25T07:57:28.903Z,9.70
2023-04-25T08:00:00.201Z,8.20
2023-04-25T08:02:32.573Z,7.47
2023-04-25T08:04:59.638Z,8.18
2023-04-25T08:07:29.898Z,7.25
2023-04-25T08:10:01.878Z,8.45
2023-04-25T08:12:33.431Z,7.68
2023-04-25T08:15:05.642Z,8.82
2023-04-25T08:17:35.966Z,8.77
2023-04-25T08:20:05.985Z,10.27
2023-04-25T08:25:23.559Z,12.70
2023-04-25T08:27:50.340Z,9.60
2023-04-25T08:30:24.996Z,11.35
2023-04-25T08:35:49.975Z,10.48
2023-04-25T08:38:18.648Z,9.07
2023-04-25T08:40:51.737Z,12.35
2023-04-25T08:43:25.418Z,10.07
2023-04-25T08:45:54.508Z,14.60
2023-04-25T08:48:42.849Z,11.13
2023-04-25T08:53:46.229Z,13.65
2023-04-25T08:56:18.143Z,12.18
2023-04-25T08:58:51.716Z,12.45
2023-04-25T09:01:19.701Z,13.88
2023-04-25T09:04:03.734Z,16.15
2023-04-25T09:06:32.117Z,13.40
2023-04-25T09:09:12.301Z,11.70
2023-04-25T09:11:38.963Z,14.80
2023-04-25T09:14:15.471Z,14.57
2023-04-25T09:17:11.308Z,18.98
2023-04-25T09:19:47.990Z,8.73
2023-04-25T09:22:23.044Z,5.35
2023-04-25T09:24:51.427Z,7.85
2023-04-25T09:27:23.222Z,4.53
2023-04-25T09:30:02.176Z,6.75
2023-04-25T09:32:45.068Z,7.70
2023-04-25T09:35:28.193Z,8.85
2023-04-25T09:38:22.243Z,9.50
2023-04-25T09:41:01.457Z,10.85
2023-04-25T09:44:04.948Z,14.88
2023-04-25T09:46:38.750Z,8.57
2023-04-25T09:49:15.562Z,11.35
2023-04-25T09:52:01.004Z,11.60
2023-04-25T09:54:34.583Z,19.77
2023-04-25T09:57:32.753Z,12.70
2023-04-25T10:00:01.240Z,12.68
2023-04-25T10:02:46.735Z,12.38
2023-04-25T10:05:32.464Z,13.35
2023-04-25T10:08:04.368Z,18.80
2023-04-25T10:10:38.756Z,14.98
2023-04-25T10:13:07.110Z,9.85
2023-04-25T10:16:05.269Z,9.48
2023-04-25T10:18:34.234Z,8.73
2023-04-25T10:21:03.428Z,8.23
2023-04-25T10:23:31.598Z,8.18
2023-04-25T10:25:59.169Z,14.68
2023-04-25T10:28:26.079Z,10.85
2023-04-25T10:31:10.779Z,10.65
2023-04-25T10:33:42.278Z,9.57
2023-04-25T10:36:22.800Z,11.20
2023-04-25T10:38:54.495Z,9.18
2023-04-25T10:41:23.324Z,11.10
2023-04-25T10:44:01.552Z,10.75
2023-04-25T10:46:32.381Z,13.20
2023-04-25T10:49:04.665Z,12.00
2023-04-25T10:52:16.362Z,10.80
2023-04-25T10:54:53.966Z,12.63
2023-04-25T10:57:38.792Z,11.45
2023-04-25T11:00:08.892Z,10.55
2023-04-25T11:02:47.067Z,9.93
2023-04-25T11:05:29.360Z,12.48
2023-04-25T11:08:07.131Z,11.82
2023-04-25T11:10:41.345Z,9.05
2023-04-25T11:13:10.183Z,9.27
2023-04-25T11:15:38.724Z,12.60
2023-04-25T11:18:10.325Z,8.43
2023-04-25T11:20:43.723Z,8.00
2023-04-25T11:23:38.647Z,10.13
2023-04-25T11:26:45.940Z,12.93
2023-04-25T11:29:14.822Z,9.88
2023-04-25T11:31:45.932Z,9.35
2023-04-25T11:34:21.108Z,8.13
2023-04-25T11:36:48.209Z,6.68
2023-04-25T11:39:17.014Z,9.32
2023-04-25T11:44:41.223Z,11.00
2023-04-25T11:47:07.935Z,11.02
2023-04-25T11:49:35.982Z,9.82
2023-04-25T11:52:07.732Z,11.50
2023-04-25T11:54:37.973Z,9.52
2023-04-25T11:57:08.836Z,10.52
2023-04-25T11:59:49.945Z,9.02
2023-04-25T12:02:27.156Z,8.45
2023-04-25T12:04:54.334Z,11.45
2023-04-25T12:07:29.378Z,12.20
2023-04-25T12:10:05.803Z,10.48
2023-04-25T12:12:35.904Z,9.18
2023-04-25T12:15:19.988Z,14.98
2023-04-25T12:17:53.264Z,18.38
2023-04-25T12:20:26.543Z,13.23
2023-04-25T12:22:57.797Z,8.75
2023-04-25T12:25:42.258Z,10.57
2023-04-25T12:28:21.197Z,9.45
2023-04-25T12:30:59.741Z,8.25
2023-04-25T12:33:31.824Z,8.98
2023-04-25T12:36:10.628Z,8.95
2023-04-25T12:38:41.069Z,9.95
2023-04-25T12:41:11.862Z,9.52
2023-04-25T12:43:42.558Z,11.10
2023-04-25T12:46:36.546Z,12.35
2023-04-25T12:49:17.789Z,11.02
2023-04-25T12:51:47.834Z,15.20
2023-04-25T12:54:14.705Z,15.57
2023-04-25T12:56:44.423Z,16.73
2023-04-25T12:59:11.147Z,19.92
2023-04-25T13:01:45.724Z,18.48
2023-04-25T13:04:17.251Z,15.20
2023-04-25T13:06:44.265Z,11.77
2023-04-25T13:09:16.123Z,11.73
2023-04-25T13:11:48.139Z,10.73
2023-04-25T13:14:16.007Z,15.70
2023-04-25T13:16:46.236Z,10.40
2023-04-25T13:19:13.255Z,11.75
2023-04-25T13:21:57.418Z,13.02
2023-04-25T13:33:26.034Z,12.52
2023-04-25T13:35:56.613Z,11.20
2023-04-25T13:38:28.969Z,10.82
2023-04-25T13:40:55.751Z,11.25
2023-04-25T13:43:26.426Z,12.55
2023-04-25T13:45:57.029Z,8.23
2023-04-25T13:48:27.711Z,12.52
2023-04-25T13:50:54.493Z,8.10
2023-04-25T13:53:21.540Z,12.10
2023-04-25T13:55:54.007Z,7.28
2023-04-25T14:00:50.764Z,8.68
2023-04-25T14:03:21.514Z,8.05
2023-04-25T14:05:51.547Z,8.85
2023-04-25T14:08:18.167Z,6.28
2023-04-25T14:10:45.924Z,9.60
2023-04-25T14:13:15.325Z,12.40
2023-04-25T14:15:51.785Z,8.05
2023-04-25T14:18:19.269Z,7.18
2023-04-25T14:20:47.549Z,7.50
2023-04-25T14:23:19.664Z,9.20
2023-04-25T14:25:48.512Z,7.30
2023-04-25T14:28:15.117Z,8.60
2023-04-25T14:30:51.778Z,9.15
2023-04-25T14:33:27.368Z,10.23
2023-04-25T14:35:57.644Z,6.15
2023-04-25T14:38:25.824Z,7.20
2023-04-25T14:40:54.339Z,8.35
2023-04-25T14:43:21.114Z,6.57
2023-04-25T14:45:47.792Z,7.57
2023-04-25T14:48:19.720Z,6.13
2023-04-25T14:50:46.848Z,6.75
2023-04-25T14:53:16.102Z,5.85
2023-04-25T14:55:51.261Z,6.50
2023-04-25T15:00:47.180Z,7.57
2023-04-25T15:03:16.994Z,7.07
2023-04-25T15:05:48.101Z,5.72
2023-04-25T15:08:18.391Z,8.43
2023-04-25T15:10:50.820Z,4.82
2023-04-25T15:13:19.551Z,9.23
2023-04-25T15:15:54.346Z,8.00
2023-04-25T15:20:55.119Z,8.52
2023-04-25T15:23:28.418Z,4.85
2023-04-25T15:26:00.208Z,8.35
2023-04-25T15:28:26.916Z,5.38
2023-04-25T15:31:01.006Z,10.48
2023-04-25T15:33:28.845Z,5.45
2023-04-25T15:35:56.089Z,8.52
2023-04-25T15:38:23.074Z,5.47
2023-04-25T15:40:49.895Z,6.88
2023-04-25T15:43:20.604Z,5.07
2023-04-25T15:45:51.163Z,5.63
2023-04-25T15:48:21.254Z,6.38
2023-04-25T15:50:48.560Z,4.82
2023-04-25T16:13:36.353Z,8.23
2023-04-25T16:16:03.127Z,6.75
2023-04-25T16:18:30.349Z,8.32
2023-04-25T16:20:59.555Z,9.13
2023-04-25T16:23:27.357Z,8.38
2023-04-25T16:25:55.424Z,11.23
2023-04-25T16:28:23.317Z,13.10
2023-04-25T16:30:50.581Z,12.07
2023-04-25T16:33:19.282Z,9.70
2023-04-25T16:35:52.158Z,8.20
2023-04-25T16:38:19.050Z,7.75
2023-04-25T16:40:45.666Z,7.47
2023-04-25T16:43:13.721Z,7.10
2023-04-25T16:48:39.151Z,10.82
2023-04-25T16:51:09.287Z,14.98
2023-04-25T16:54:01.507Z,13.50
2023-04-25T17:16:39.466Z,7.63
2023-04-25T17:19:08.646Z,8.57
2023-04-25T17:36:14.355Z,14.32
2023-04-25T17:38:41.313Z,20.75
2023-04-25T17:41:09.912Z,28.20
2023-04-25T17:43:36.556Z,22.45
2023-04-25T17:46:10.556Z,14.30
2023-04-25T17:51:34.495Z,9.15
2023-04-25T17:54:04.394Z,10.07
2023-04-25T17:56:34.799Z,10.63
2023-04-25T17:59:03.959Z,7.55
2023-04-25T18:01:30.775Z,10.95
2023-04-25T18:03:58.506Z,9.32
2023-04-25T18:06:27.489Z,9.15
2023-04-25T18:08:55.453Z,11.52
2023-04-25T18:11:22.908Z,11.45
2023-04-25T18:13:49.767Z,10.20
2023-04-25T18:16:16.703Z,8.02
2023-04-25T18:18:46.146Z,11.77
2023-04-25T18:21:15.112Z,11.30
2023-04-25T18:23:44.370Z,13.45
2023-04-25T18:26:15.589Z,16.77
2023-04-25T18:28:42.377Z,14.65
2023-04-25T18:31:13.237Z,11.13
2023-04-25T18:33:40.925Z,9.38
2023-04-25T18:45:03.197Z,15.38
2023-04-25T18:47:30.092Z,19.52
2023-04-25T18:49:56.713Z,13.80
2023-04-25T18:52:25.493Z,11.32
2023-04-25T18:54:52.929Z,11.40
2023-04-25T18:57:22.561Z,9.88
2023-04-25T18:59:51.709Z,11.55
2023-04-25T19:02:25.421Z,14.02
2023-04-25T19:04:56.688Z,16.42
2023-04-25T19:07:30.087Z,13.93
2023-04-25T19:09:56.913Z,10.93
2023-04-25T19:12:27.549Z,11.20
2023-04-25T19:17:55.215Z,9.85
2023-04-25T19:20:21.850Z,8.95
2023-04-25T19:22:53.908Z,7.82
2023-04-25T19:25:52.960Z,7.82
2023-04-25T19:28:22.360Z,9.52
2023-04-25T19:30:49.036Z,11.70
2023-04-25T19:33:18.921Z,11.00
2023-04-25T19:39:03.639Z,11.27
2023-04-25T19:41:35.248Z,9.65
2023-04-25T19:44:05.397Z,12.60
2023-04-25T19:46:33.164Z,8.68
2023-04-25T19:49:05.310Z,15.27
2023-04-25T19:51:59.417Z,10.82
2023-04-25T19:54:26.520Z,11.90
2023-04-25T19:59:47.381Z,10.70
2023-04-25T20:02:17.611Z,13.18
2023-04-25T20:07:37.769Z,9.02
2023-04-25T20:10:07.104Z,9.50
2023-04-25T20:12:36.989Z,12.03
2023-04-25T20:15:04.535Z,9.20
2023-04-25T20:17:31.348Z,11.45
2023-04-25T20:19:59.093Z,11.43
2023-04-25T20:22:35.463Z,10.52
2023-04-25T20:25:07.351Z,10.80
2023-04-25T20:27:37.672Z,11.60
2023-04-25T20:30:07.305Z,9.85
2023-04-25T20:32:35.104Z,13.15
2023-04-25T20:35:10.613Z,12.85
2023-04-25T20:37:40.666Z,14.00
2023-04-25T20:40:08.675Z,22.80
2023-04-25T20:42:35.615Z,23.23
2023-04-25T20:45:13.333Z,22.70
2023-04-25T20:47:43.805Z,17.13
2023-04-25T20:50:14.389Z,20.55
2023-04-25T20:52:42.516Z,13.20
2023-04-25T20:55:11.558Z,13.43
2023-04-25T20:57:52.687Z,13.25
2023-04-25T21:00:26.483Z,12.73
2023-04-25T21:02:53.823Z,10.82
2023-04-25T21:05:25.076Z,13.32
2023-04-25T21:10:56.032Z,16.75
2023-04-25T21:13:22.838Z,14.40
2023-04-25T21:15:50.996Z,15.30
2023-04-25T21:18:17.850Z,12.18
2023-04-25T21:20:47.612Z,11.90
2023-04-25T21:23:14.842Z,11.95
2023-04-25T21:25:44.646Z,12.18
2023-04-25T21:28:11.893Z,10.45
2023-04-25T21:30:38.600Z,12.50
2023-04-25T21:33:05.790Z,14.00
2023-04-25T21:35:36.263Z,14.00
2023-04-25T21:38:03.859Z,13.32
2023-04-25T21:43:17.265Z,14.45
2023-04-25T21:46:09.099Z,13.40
2023-04-25T21:48:32.768Z,14.13
2023-04-25T21:50:59.612Z,10.70
2023-04-25T21:53:28.361Z,14.55
2023-04-25T22:15:40.834Z,13.07
2023-04-25T22:18:07.889Z,9.77
2023-04-25T22:20:36.828Z,11.23
2023-04-25T22:23:05.687Z,10.73
2023-04-25T22:25:34.877Z,11.85
2023-04-25T22:28:03.731Z,12.00
2023-04-25T22:30:31.333Z,13.40
2023-04-25T22:32:59.793Z,13.18
2023-04-25T22:35:26.546Z,10.63
2023-04-25T22:37:54.196Z,12.43
2023-04-25T22:43:19.071Z,13.77
2023-04-25T22:45:46.318Z,10.82
2023-04-25T22:48:16.841Z,16.13
2023-04-25T22:50:44.756Z,10.50
2023-04-25T22:53:15.660Z,11.43
2023-04-25T22:55:46.251Z,11.93
2023-04-25T22:58:18.936Z,11.98
2023-04-25T23:03:12.123Z,20.90
2023-04-25T23:05:38.964Z,23.05
2023-04-25T23:08:09.287Z,14.15
2023-04-25T23:10:36.770Z,11.65
2023-04-25T23:13:05.723Z,14.05
2023-04-25T23:15:37.753Z,11.20
2023-04-25T23:18:08.247Z,11.07
2023-04-25T23:20:35.347Z,16.13
2023-04-25T23:23:05.242Z,10.52
2023-04-25T23:25:45.831Z,12.15
2023-04-25T23:28:12.576Z,16.55
2023-04-25T23:30:42.509Z,14.35
2023-04-25T23:33:09.259Z,20.50
2023-04-25T23:35:38.866Z,11.45
2023-04-25T23:38:08.047Z,15.48
2023-04-25T23:46:48.505Z,21.77
2023-04-25T23:49:15.464Z,19.45
2023-04-25T23:51:42.293Z,25.92
2023-04-25T23:54:12.827Z,18.85
2023-04-25T23:56:48.827Z,20.10
2023-04-25T23:59:15.575Z,20.00
